Alytus, Lithuania
Current Conditions -  °F | °C
As of 5:50 PM on Thursday 30 Oct 2014 (Local Time) from EYKA Reporting Station
Haze Haze  
Wind Chill: 40°   Ceiling: 900
Heat Index: 43°   Visibility: 3mi
Dew Point: 36°   Wind: 5mph
Humidity: 76%   Direction: 280°W
Pressure: 30.15"   Gusts: NA
Location:  54.39°N, 24.05°E
Report Text: EYKA 301450Z 28004KT 5000 BR OVC009 06/02 Q1021
Loading
Personal Weather Stations






























Interactive Weather Map
Tropical Storm Tracking
New forecast layout! Learn more

10-Day Weather Forecast

Advertisements
Track Severe Weather on mobile